Time;durP1;ratioP1;P1;durP2;ratioP2;P2;SDS_P1;SDS_P2;PMS_P1;PMS_P2;Temp;Humidity;BMP_temperature;BMP_pressure;BME280_temperature;BME280_humidity;BME280_pressure;Samples;Min_cycle;Max_cycle;Signal;HPM_P1;HPM_P2
2024/04/03 05:09:33;;;;;;;;;;;;;;;10.61;100.00;98426.41;1864421;76;20104;-74
2024/04/03 05:11:59;;;;;;;;;;;;;;;10.59;100.00;98427.02;1814957;77;20124;-74
2024/04/03 05:14:25;;;;;;;;;;;;;;;10.62;100.00;98428.06;1807889;77;20193;-78
2024/04/03 05:16:52;;;;;;;;;;;;;;;10.75;100.00;98424.81;1819485;77;20181;-73
2024/04/03 05:19:18;;;;;;;;;;;;;;;11.00;100.00;98431.41;1818378;77;20195;-75
2024/04/03 05:21:44;;;;;;;;;;;;;;;11.17;100.00;98420.89;1805364;77;20161;-79
2024/04/03 05:24:11;;;;;;;;;;;;;;;11.26;100.00;98429.20;1805745;78;20105;-75
2024/04/03 05:26:37;;;;;;;;;;;;;;;11.26;100.00;98424.82;1816568;77;20137;-83
2024/04/03 05:29:05;;;;;;;;;;;;;;;11.18;100.00;98428.58;1818137;77;20392;-76
2024/04/03 05:31:32;;;;;;;;;;;;;;;11.09;100.00;98437.16;1819477;77;20129;-74
2024/04/03 05:34:00;;;;;;;;;;;;;;;11.02;100.00;98441.22;1817626;77;20190;-76
2024/04/03 05:36:26;;;;;;;;;;;;;;;10.95;100.00;98434.87;1824215;77;20405;-73
2024/04/03 05:38:52;;;;;;;;;;;;;;;10.91;100.00;98433.47;1833980;77;20126;-75
2024/04/03 05:41:19;;;;;;;;;;;;;;;10.95;100.00;98442.68;1819616;78;20953;-75
2024/04/03 05:43:45;;;;;;;;;;;;;;;11.07;100.00;98439.54;1821594;78;20129;-75
2024/04/03 05:46:11;;;;;;;;;;;;;;;11.23;100.00;98437.28;1819478;77;20139;-75
2024/04/03 05:48:37;;;;;;;;;;;;;;;11.38;100.00;98434.70;1812135;77;20145;-75
2024/04/03 05:51:09;;;;;;;;;;;;;;;11.46;100.00;98436.66;1812345;77;20134;-74
2024/04/03 05:53:37;;;;;;;;;;;;;;;11.55;100.00;98441.09;1816385;78;20117;-75
2024/04/03 05:56:06;;;;;;;;;;;;;;;11.65;100.00;98444.53;1814571;78;20180;-72
2024/04/03 05:58:33;;;;;;;;;;;;;;;11.73;100.00;98443.41;1822764;78;20114;-73
2024/04/03 06:01:01;;;;;;;;;;;;;;;11.80;100.00;98444.56;1828009;78;20405;-75
2024/04/03 06:03:31;;;;;;;;;;;;;;;11.85;100.00;98452.81;1783502;80;20176;-76
2024/04/03 06:05:59;;;;;;;;;;;;;;;11.90;100.00;98443.30;1739634;80;20331;-76
2024/04/03 06:08:28;;;;;;;;;;;;;;;11.91;100.00;98441.03;1777985;79;20398;-74
2024/04/03 06:10:55;;;;;;;;;;;;;;;11.93;100.00;98445.64;1763727;79;20420;-75
2024/04/03 06:13:25;;;;;;;;;;;;;;;11.98;100.00;98443.46;1744871;81;20392;-73
2024/04/03 06:15:53;;;;;;;;;;;;;;;12.05;100.00;98443.24;1711186;82;20142;-72
2024/04/03 06:18:22;;;;;;;;;;;;;;;12.15;100.00;98458.45;1759789;80;20096;-76
2024/04/03 06:20:49;;;;;;;;;;;;;;;12.23;100.00;98465.61;1768026;80;20097;-76
2024/04/03 06:23:22;;;;;;;;;;;;;;;12.29;100.00;98468.98;1766112;80;20157;-79
2024/04/03 06:26:24;;;;;;;;;;;;;;;12.33;100.00;98458.62;1752794;80;20112;-75
2024/04/03 06:28:40;;;;;;;;;;;;;;;12.35;100.00;98470.58;1751744;80;20187;-76
2024/04/03 06:31:34;;;;;;;;;;;;;;;12.35;100.00;98460.63;1743221;81;20139;-74
2024/04/03 06:34:29;;;;;;;;;;;;;;;12.31;100.00;98467.07;1679980;83;20197;-74
2024/04/03 06:37:41;;;;;;;;;;;;;;;12.29;100.00;98466.38;1731635;80;20329;-77
2024/04/03 06:40:35;;;;;;;;;;;;;;;12.34;100.00;98467.63;1753065;80;20154;-80
2024/04/03 06:43:24;;;;;;;;;;;;;;;12.50;100.00;98470.98;1771511;80;20085;-76
2024/04/03 06:45:56;;;;;;;;;;;;;;;12.61;100.00;98473.48;1739618;81;20391;-75
2024/04/03 06:48:23;;;;;;;;;;;;;;;12.71;97.83;98472.18;1772496;80;20416;-74
2024/04/03 06:50:53;;;;;;;;;;;;;;;12.78;97.69;98470.67;1793778;79;20104;-73
2024/04/03 06:53:20;;;;;;;;;;;;;;;12.92;97.59;98465.48;1800968;77;20609;-77
2024/04/03 06:56:00;;;;;;;;;;;;;;;13.05;95.62;98471.25;1798298;79;20153;-76
2024/04/03 06:58:39;;;;;;;;;;;;;;;13.17;95.98;98471.96;1811011;79;20128;-74
2024/04/03 07:01:06;;;;;;;;;;;;;;;13.35;94.24;98481.53;1806544;79;20352;-73
2024/04/03 07:03:33;;;;;;;;;;;;;;;13.52;93.20;98485.70;1809101;79;20467;-76
2024/04/03 07:06:00;;;;;;;;;;;;;;;13.66;91.98;98481.30;1804057;79;20177;-73
2024/04/03 07:08:28;;;;;;;;;;;;;;;13.79;89.73;98485.73;1804876;77;20138;-73
2024/04/03 07:10:54;;;;;;;;;;;;;;;13.92;87.34;98473.15;1797600;79;20287;-75
2024/04/03 07:13:22;;;;;;;;;;;;;;;14.05;86.59;98472.78;1809040;78;20118;-76
2024/04/03 07:15:48;;;;;;;;;;;;;;;14.17;85.53;98492.56;1816390;79;20399;-72
2024/04/03 07:18:14;;;;;;;;;;;;;;;14.24;83.77;98499.35;1813721;79;20129;-79
2024/04/03 07:20:41;;;;;;;;;;;;;;;14.23;82.36;98508.17;1774729;80;20119;-75
2024/04/03 07:23:07;;;;;;;;;;;;;;;14.18;81.84;98513.02;1735889;82;20135;-74
2024/04/03 07:25:35;;;;;;;;;;;;;;;14.07;80.78;98526.30;1750873;81;20139;-75
2024/04/03 07:28:11;;;;;;;;;;;;;;;13.95;81.50;98526.50;1751716;81;20134;-75
2024/04/03 07:30:40;;;;;;;;;;;;;;;13.88;81.71;98529.35;1739889;81;20254;-77
2024/04/03 07:33:08;;;;;;;;;;;;;;;13.85;81.34;98537.48;1748598;81;20170;-75
2024/04/03 07:35:34;;;;;;;;;;;;;;;13.83;80.83;98534.67;1748170;81;20431;-76
2024/04/03 07:38:06;;;;;;;;;;;;;;;13.86;80.77;98537.83;1741563;81;20162;-78
2024/04/03 07:40:32;;;;;;;;;;;;;;;13.97;80.54;98533.73;1754829;81;20109;-80
2024/04/03 07:42:58;;;;;;;;;;;;;;;14.16;80.12;98540.66;1745924;81;20100;-77
2024/04/03 07:45:25;;;;;;;;;;;;;;;14.39;79.85;98556.81;1750551;81;20256;-74
2024/04/03 07:47:51;;;;;;;;;;;;;;;14.60;77.64;98551.33;1753215;81;20111;-74
2024/04/03 07:50:18;;;;;;;;;;;;;;;14.71;76.29;98559.47;1751347;81;20423;-73
2024/04/03 07:52:44;;;;;;;;;;;;;;;14.72;75.34;98537.54;1750341;80;20143;-74
2024/04/03 07:55:12;;;;;;;;;;;;;;;14.71;74.52;98552.44;1757137;81;20129;-74
2024/04/03 07:57:38;;;;;;;;;;;;;;;14.73;74.75;98553.11;1725787;82;20369;-78
2024/04/03 08:00:07;;;;;;;;;;;;;;;14.75;75.26;98560.34;1741152;82;20177;-76
2024/04/03 08:02:41;;;;;;;;;;;;;;;14.77;74.09;98558.40;1769709;80;20156;-75
2024/04/03 08:05:08;;;;;;;;;;;;;;;14.83;74.06;98566.13;1759776;81;20121;-74
2024/04/03 08:07:37;;;;;;;;;;;;;;;14.94;74.72;98559.36;1746505;81;20176;-77
2024/04/03 08:10:05;;;;;;;;;;;;;;;15.05;73.63;98567.02;1759142;79;20159;-76
2024/04/03 08:12:32;;;;;;;;;;;;;;;15.10;71.55;98554.28;1775194;80;20159;-72
2024/04/03 08:15:00;;;;;;;;;;;;;;;15.08;70.65;98578.52;1747979;81;20085;-76
2024/04/03 08:17:28;;;;;;;;;;;;;;;15.03;71.41;98563.72;1718735;83;20216;-77
2024/04/03 08:19:56;;;;;;;;;;;;;;;15.02;71.05;98571.24;1750964;78;20446;-73
2024/04/03 08:22:23;;;;;;;;;;;;;;;15.04;70.59;98582.41;1756117;80;20099;-75
2024/04/03 08:24:50;;;;;;;;;;;;;;;15.00;71.12;98589.73;1725645;81;20458;-77
2024/04/03 08:27:18;;;;;;;;;;;;;;;14.99;70.83;98592.51;1754360;81;20451;-76
2024/04/03 08:29:46;;;;;;;;;;;;;;;14.98;70.27;98595.62;1746678;81;20114;-77
2024/04/03 08:32:14;;;;;;;;;;;;;;;14.95;70.03;98602.46;1771399;78;20094;-75
2024/04/03 08:34:40;;;;;;;;;;;;;;;14.94;70.76;98623.09;1752046;81;20425;-75
2024/04/03 08:37:06;;;;;;;;;;;;;;;14.92;71.08;98615.03;1758217;81;20128;-76
2024/04/03 08:39:33;;;;;;;;;;;;;;;14.90;71.49;98622.22;1758348;81;20183;-78
2024/04/03 08:42:04;;;;;;;;;;;;;;;14.83;70.29;98609.36;1764849;81;20417;-75
2024/04/03 08:44:37;;;;;;;;;;;;;;;14.75;70.66;98619.78;1756978;81;20375;-75
2024/04/03 08:47:01;;;;;;;;;;;;;;;14.75;71.65;98626.34;1752562;81;20136;-74
2024/04/03 08:49:29;;;;;;;;;;;;;;;14.77;70.37;98613.42;1784952;78;20093;-75
2024/04/03 08:52:06;;;;;;;;;;;;;;;14.84;70.74;98620.19;1769391;80;20118;-77
2024/04/03 08:54:33;;;;;;;;;;;;;;;14.92;69.79;98622.41;1770497;80;20443;-75
2024/04/03 08:57:04;;;;;;;;;;;;;;;15.04;69.00;98636.63;1714146;80;20181;-76
2024/04/03 08:59:39;;;;;;;;;;;;;;;15.16;68.95;98626.27;1748655;81;20397;-73
2024/04/03 09:02:06;;;;;;;;;;;;;;;15.26;68.42;98639.63;1745816;80;20399;-74
2024/04/03 09:04:33;;;;;;;;;;;;;;;15.38;67.85;98638.92;1740755;80;20094;-75
2024/04/03 09:07:01;;;;;;;;;;;;;;;15.41;66.62;98631.23;1786576;78;20093;-78
2024/04/03 09:09:28;;;;;;;;;;;;;;;15.38;67.02;98636.30;1773020;79;20163;-76
2024/04/03 09:12:02;;;;;;;;;;;;;;;15.37;67.04;98642.52;1736333;81;20166;-75
2024/04/03 09:14:29;;;;;;;;;;;;;;;15.42;67.41;98653.88;1742423;81;20159;-78
2024/04/03 09:16:59;;;;;;;;;;;;;;;15.49;67.71;98637.38;1746013;81;20112;-76
2024/04/03 09:19:26;;;;;;;;;;;;;;;15.58;66.86;98623.39;1740879;82;20168;-77
2024/04/03 09:21:53;;;;;;;;;;;;;;;15.65;65.28;98634.08;1733447;82;20170;-78
2024/04/03 09:24:19;;;;;;;;;;;;;;;15.68;65.00;98635.09;1722575;81;20107;-78
2024/04/03 09:26:48;;;;;;;;;;;;;;;15.69;64.19;98632.80;1731853;81;20131;-77
2024/04/03 09:29:17;;;;;;;;;;;;;;;15.73;63.53;98634.15;1745875;81;20511;-76
2024/04/03 09:31:46;;;;;;;;;;;;;;;15.74;63.30;98641.53;1749123;80;20092;-74
2024/04/03 09:34:14;;;;;;;;;;;;;;;15.78;62.88;98645.50;1750219;80;20164;-77
2024/04/03 09:36:41;;;;;;;;;;;;;;;15.81;62.46;98657.84;1752421;81;20171;-78
2024/04/03 09:39:10;;;;;;;;;;;;;;;15.87;63.63;98649.84;1747530;81;20420;-80
2024/04/03 09:41:39;;;;;;;;;;;;;;;15.96;63.58;98669.93;1749956;80;20131;-76
2024/04/03 09:44:08;;;;;;;;;;;;;;;16.06;62.60;98675.06;1743870;81;20127;-74
2024/04/03 09:46:54;;;;;;;;;;;;;;;16.12;62.91;98677.08;1749766;80;20495;-78
2024/04/03 09:49:18;;;;;;;;;;;;;;;16.19;62.83;98666.29;1757061;80;20145;-76
2024/04/03 09:51:45;;;;;;;;;;;;;;;16.21;61.72;98682.72;1746432;80;20115;-75
2024/04/03 09:54:11;;;;;;;;;;;;;;;16.18;61.42;98686.48;1732083;81;20117;-72
2024/04/03 09:56:40;;;;;;;;;;;;;;;16.19;61.86;98682.05;1751764;81;20113;-79
2024/04/03 09:59:08;;;;;;;;;;;;;;;16.23;62.34;98672.40;1742366;81;20126;-73
2024/04/03 10:01:37;;;;;;;;;;;;;;;16.27;62.87;98660.60;1746416;81;20140;-73
2024/04/03 10:04:05;;;;;;;;;;;;;;;16.34;63.15;98664.26;1747456;80;20145;-74
2024/04/03 10:06:37;;;;;;;;;;;;;;;16.41;62.75;98667.55;1748089;81;20410;-73
2024/04/03 10:09:20;;;;;;;;;;;;;;;16.45;61.75;98663.14;1758680;79;20087;-75
2024/04/03 10:11:48;;;;;;;;;;;;;;;16.45;60.90;98684.65;1772461;80;20112;-75
2024/04/03 10:14:32;;;;;;;;;;;;;;;16.41;60.26;98688.08;1771013;80;20146;-73
2024/04/03 10:17:00;;;;;;;;;;;;;;;16.35;60.79;98686.10;1760289;80;20412;-74
2024/04/03 10:19:30;;;;;;;;;;;;;;;16.32;59.68;98694.29;1769458;80;21133;-72
2024/04/03 10:21:57;;;;;;;;;;;;;;;16.30;59.35;98690.99;1765830;80;20126;-74
2024/04/03 10:24:31;;;;;;;;;;;;;;;16.35;59.60;98693.98;1778811;80;20115;-74
2024/04/03 10:26:57;;;;;;;;;;;;;;;16.40;59.01;98696.94;1773589;80;20103;-75
2024/04/03 10:29:24;;;;;;;;;;;;;;;16.43;58.81;98712.88;1762085;80;20106;-75
2024/04/03 10:31:50;;;;;;;;;;;;;;;16.42;58.78;98705.98;1754679;80;20119;-77
2024/04/03 10:34:21;;;;;;;;;;;;;;;16.40;58.34;98714.50;1764369;80;20172;-73
2024/04/03 10:36:52;;;;;;;;;;;;;;;16.40;58.76;98721.07;1761573;80;20378;-75
2024/04/03 10:39:18;;;;;;;;;;;;;;;16.43;58.78;98729.96;1754233;80;20655;-77
2024/04/03 10:41:45;;;;;;;;;;;;;;;16.46;58.66;98727.03;1754310;80;20177;-76
2024/04/03 10:44:12;;;;;;;;;;;;;;;16.46;58.13;98729.66;1769133;80;20147;-74
2024/04/03 10:46:38;;;;;;;;;;;;;;;16.43;58.67;98724.70;1759734;80;20098;-72
2024/04/03 10:49:09;;;;;;;;;;;;;;;16.38;58.57;98735.70;1762991;80;20113;-77
2024/04/03 10:51:35;;;;;;;;;;;;;;;16.31;58.68;98734.19;1767648;80;20128;-74
2024/04/03 10:54:02;;;;;;;;;;;;;;;16.24;58.16;98735.77;1765908;80;20157;-77
2024/04/03 10:56:29;;;;;;;;;;;;;;;16.18;58.11;98741.63;1766354;80;20097;-72
2024/04/03 10:58:56;;;;;;;;;;;;;;;16.20;58.99;98741.48;1756937;80;20130;-77
2024/04/03 11:01:23;;;;;;;;;;;;;;;16.18;58.77;98750.00;1769040;80;20362;-73
2024/04/03 11:03:52;;;;;;;;;;;;;;;16.18;58.60;98736.87;1775371;80;20131;-74
2024/04/03 11:06:19;;;;;;;;;;;;;;;16.17;58.63;98750.48;1772781;80;20437;-73
2024/04/03 11:08:49;;;;;;;;;;;;;;;16.18;58.95;98748.20;1753245;80;20101;-74
2024/04/03 11:11:16;;;;;;;;;;;;;;;16.19;58.22;98759.53;1737633;80;20342;-77
2024/04/03 11:13:49;;;;;;;;;;;;;;;16.15;58.15;98749.81;1761439;80;20107;-77
2024/04/03 11:16:20;;;;;;;;;;;;;;;16.20;58.29;98748.87;1758457;80;20126;-73
2024/04/03 11:18:46;;;;;;;;;;;;;;;16.25;56.67;98740.53;1762465;80;20521;-77
2024/04/03 11:21:12;;;;;;;;;;;;;;;16.24;55.65;98753.33;1766763;80;20093;-75
2024/04/03 11:23:40;;;;;;;;;;;;;;;16.22;55.83;98753.97;1762530;80;20148;-75
2024/04/03 11:26:08;;;;;;;;;;;;;;;16.16;56.09;98761.14;1767655;80;20107;-72
2024/04/03 11:28:35;;;;;;;;;;;;;;;16.13;56.17;98762.76;1779407;80;20107;-74
2024/04/03 11:31:02;;;;;;;;;;;;;;;16.01;56.60;98768.23;1770696;80;20102;-73
2024/04/03 11:33:31;;;;;;;;;;;;;;;15.95;56.91;98761.48;1755671;80;20150;-72
2024/04/03 11:35:57;;;;;;;;;;;;;;;15.85;56.73;98765.49;1769402;80;20154;-74
2024/04/03 11:38:23;;;;;;;;;;;;;;;15.73;57.41;98767.17;1762401;80;20431;-73
2024/04/03 11:40:49;;;;;;;;;;;;;;;15.62;58.15;98762.95;1759267;80;20210;-75
2024/04/03 11:43:16;;;;;;;;;;;;;;;15.54;58.33;98763.69;1760719;80;20182;-78
2024/04/03 11:45:43;;;;;;;;;;;;;;;15.50;58.32;98757.09;1773478;80;20214;-79
2024/04/03 11:48:10;;;;;;;;;;;;;;;15.49;58.85;98768.55;1764064;80;20115;-75
2024/04/03 11:50:38;;;;;;;;;;;;;;;15.56;58.23;98759.61;1770113;80;20166;-74
2024/04/03 11:53:05;;;;;;;;;;;;;;;15.67;58.01;98753.67;1770466;80;20144;-75
2024/04/03 11:55:31;;;;;;;;;;;;;;;15.81;57.87;98756.75;1784385;80;20175;-72
2024/04/03 11:58:00;;;;;;;;;;;;;;;15.92;57.31;98762.61;1760341;80;20456;-76
2024/04/03 12:00:26;;;;;;;;;;;;;;;15.94;56.89;98754.58;1756459;80;20231;-71
2024/04/03 12:02:57;;;;;;;;;;;;;;;15.94;56.34;98758.03;1775820;80;20675;-77
2024/04/03 12:05:27;;;;;;;;;;;;;;;15.95;56.39;98759.69;1769212;80;20120;-75
2024/04/03 12:08:00;;;;;;;;;;;;;;;15.96;56.33;98750.83;1760390;80;20378;-73
2024/04/03 12:10:27;;;;;;;;;;;;;;;15.99;56.68;98757.06;1752929;80;20555;-74
2024/04/03 12:12:57;;;;;;;;;;;;;;;16.03;56.90;98752.34;1725344;82;20108;-77
2024/04/03 12:15:24;;;;;;;;;;;;;;;16.03;55.92;98748.40;1746008;81;20455;-77
2024/04/03 12:17:50;;;;;;;;;;;;;;;16.03;54.96;98752.34;1765434;81;20100;-75
2024/04/03 12:20:18;;;;;;;;;;;;;;;15.97;55.25;98753.80;1754258;81;20420;-71
2024/04/03 12:22:49;;;;;;;;;;;;;;;15.93;55.34;98759.49;1738509;81;20534;-80
2024/04/03 12:28:43;;;;;;;;;;;;;;;15.78;55.31;98755.73;1723963;82;20136;-76
2024/04/03 12:31:30;;;;;;;;;;;;;;;15.75;55.44;98753.41;1726555;81;20904;-78
2024/04/03 12:33:59;;;;;;;;;;;;;;;15.70;55.12;98751.72;1754820;81;20608;-71
2024/04/03 12:36:29;;;;;;;;;;;;;;;15.67;55.17;98749.73;1755201;81;20169;-75
2024/04/03 12:38:57;;;;;;;;;;;;;;;15.67;53.83;98756.30;1753984;81;20139;-74
2024/04/03 12:41:24;;;;;;;;;;;;;;;15.64;54.09;98757.90;1739586;81;20109;-78
2024/04/03 12:43:55;;;;;;;;;;;;;;;15.62;53.27;98761.64;1767717;81;20364;-76
2024/04/03 12:46:21;;;;;;;;;;;;;;;15.61;52.91;98762.62;1746907;80;20107;-74
2024/04/03 12:48:47;;;;;;;;;;;;;;;15.63;53.60;98758.05;1761703;81;20175;-73
2024/04/03 12:51:14;;;;;;;;;;;;;;;15.64;53.87;98763.15;1740934;81;20187;-76
2024/04/03 12:53:41;;;;;;;;;;;;;;;15.64;53.51;98767.08;1756789;80;20379;-78
2024/04/03 12:56:08;;;;;;;;;;;;;;;15.68;53.96;98774.17;1752137;80;20121;-74
2024/04/03 12:58:34;;;;;;;;;;;;;;;15.71;53.81;98775.19;1751834;80;20412;-77
2024/04/03 13:01:03;;;;;;;;;;;;;;;15.75;53.81;98771.78;1745561;81;20170;-76
2024/04/03 13:03:29;;;;;;;;;;;;;;;15.78;53.18;98774.11;1748549;81;20100;-75
2024/04/03 13:05:56;;;;;;;;;;;;;;;15.75;52.80;98768.67;1757737;81;20210;-75
2024/04/03 13:08:22;;;;;;;;;;;;;;;15.75;53.36;98774.41;1739025;81;20122;-79
2024/04/03 13:10:49;;;;;;;;;;;;;;;15.75;52.70;98783.11;1758435;81;20116;-76
2024/04/03 13:13:16;;;;;;;;;;;;;;;15.75;52.63;98773.92;1753767;81;20141;-78
2024/04/03 13:15:44;;;;;;;;;;;;;;;15.76;52.27;98782.13;1753288;81;20117;-81
2024/04/03 13:18:11;;;;;;;;;;;;;;;15.77;52.46;98777.70;1728290;82;20395;-78
2024/04/03 13:20:37;;;;;;;;;;;;;;;15.78;52.43;98778.88;1745996;81;20111;-75
2024/04/03 13:23:04;;;;;;;;;;;;;;;15.75;52.41;98779.17;1754008;80;20115;-75
2024/04/03 13:25:30;;;;;;;;;;;;;;;15.73;52.33;98783.74;1750241;81;20397;-74
2024/04/03 13:27:57;;;;;;;;;;;;;;;15.71;52.18;98778.30;1748251;80;20127;-73
2024/04/03 13:30:24;;;;;;;;;;;;;;;15.68;52.17;98789.44;1753284;81;20164;-73
2024/04/03 13:32:50;;;;;;;;;;;;;;;15.67;52.12;98790.41;1752674;81;20109;-73
2024/04/03 13:35:19;;;;;;;;;;;;;;;15.69;52.31;98798.13;1750382;81;20544;-76
2024/04/03 13:37:46;;;;;;;;;;;;;;;15.71;51.15;98792.73;1749775;80;21057;-75
2024/04/03 13:40:13;;;;;;;;;;;;;;;15.71;50.89;98807.17;1750847;81;20156;-73
2024/04/03 13:42:46;;;;;;;;;;;;;;;15.72;51.19;98793.08;1750809;80;20111;-75
2024/04/03 13:45:14;;;;;;;;;;;;;;;15.73;51.35;98803.91;1755130;81;20103;-76
2024/04/03 13:47:41;;;;;;;;;;;;;;;15.72;51.24;98805.71;1757350;81;20165;-73
2024/04/03 13:50:08;;;;;;;;;;;;;;;15.71;51.30;98804.06;1754688;81;20165;-71
2024/04/03 13:52:34;;;;;;;;;;;;;;;15.71;51.59;98805.37;1752494;81;20139;-75
2024/04/03 13:55:03;;;;;;;;;;;;;;;15.70;51.41;98805.03;1747235;81;20118;-75
2024/04/03 13:57:31;;;;;;;;;;;;;;;15.69;51.77;98808.62;1752995;80;20136;-75
2024/04/03 13:59:57;;;;;;;;;;;;;;;15.68;52.20;98816.16;1752533;80;20159;-72
